createdAt,value
2018-03-06T00:00:17.533Z,79.8
2018-03-06T00:01:16.766Z,79.9
2018-03-06T00:02:17.089Z,80.0
2018-03-06T00:03:16.391Z,79.8
2018-03-06T00:04:17.654Z,80.1
2018-03-06T00:05:16.809Z,80.2
2018-03-06T00:06:17.124Z,80.2
2018-03-06T00:07:16.419Z,80.0
2018-03-06T00:08:17.733Z,80.0
2018-03-06T00:09:16.726Z,80.0
2018-03-06T00:10:17.057Z,80.2
2018-03-06T00:11:17.758Z,80.0
2018-03-06T00:12:16.641Z,80.2
2018-03-06T00:13:16.976Z,80.3
2018-03-06T00:14:17.266Z,80.4
2018-03-06T00:15:17.073Z,80.4
2018-03-06T00:16:16.458Z,80.4
2018-03-06T00:17:16.763Z,81.0
2018-03-06T00:18:17.065Z,81.0
2018-03-06T00:19:16.371Z,81.0
2018-03-06T00:20:16.694Z,81.1
2018-03-06T00:21:16.734Z,81.0
2018-03-06T00:22:17.208Z,81.2
2018-03-06T00:23:16.541Z,81.2
2018-03-06T00:24:16.877Z,81.2
2018-03-06T00:25:17.196Z,81.2
2018-03-06T00:26:17.241Z,81.3
2018-03-06T00:27:16.397Z,81.8
2018-03-06T00:28:16.692Z,81.9
2018-03-06T00:29:16.997Z,82.0
2018-03-06T00:30:16.881Z,82.0
2018-03-06T00:31:16.409Z,82.2
2018-03-06T00:32:16.722Z,82.3
2018-03-06T00:33:17.029Z,82.8
2018-03-06T00:34:17.338Z,82.8
2018-03-06T00:35:16.562Z,82.9
2018-03-06T00:36:16.860Z,82.8
2018-03-06T00:37:17.171Z,82.6
2018-03-06T00:38:17.316Z,82.6
2018-03-06T00:39:16.548Z,82.7
2018-03-06T00:40:16.864Z,83.2
2018-03-06T00:41:17.667Z,83.2
2018-03-06T00:42:16.808Z,83.3
2018-03-06T00:43:17.112Z,83.5
2018-03-06T00:44:17.388Z,83.4
2018-03-06T00:45:16.676Z,83.4
2018-03-06T00:46:16.967Z,83.3
2018-03-06T00:47:18.128Z,83.4
2018-03-06T00:48:17.150Z,83.5
2018-03-06T00:49:16.448Z,83.5
2018-03-06T00:50:16.765Z,84.2
2018-03-06T00:51:17.540Z,84.2
2018-03-06T00:52:16.956Z,84.2
2018-03-06T00:53:16.313Z,84.0
2018-03-06T00:54:17.640Z,84.0
2018-03-06T00:55:16.944Z,84.1
2018-03-06T00:56:17.281Z,84.2
2018-03-06T00:57:16.581Z,84.1
2018-03-06T00:58:17.606Z,84.1
2018-03-06T00:59:16.617Z,84.0
2018-03-06T01:00:16.929Z,84.0
2018-03-06T01:01:17.798Z,84.6
2018-03-06T01:02:17.029Z,84.7
2018-03-06T01:03:16.338Z,84.7
2018-03-06T01:04:16.639Z,84.7
2018-03-06T01:05:17.806Z,84.7
2018-03-06T01:06:16.883Z,84.7
2018-03-06T01:07:17.184Z,84.6
2018-03-06T01:08:17.009Z,84.7
2018-03-06T01:09:16.611Z,84.6
2018-03-06T01:10:16.919Z,84.7
2018-03-06T01:11:16.949Z,84.7
2018-03-06T01:12:18.033Z,84.8
2018-03-06T01:13:17.185Z,84.8
2018-03-06T01:14:16.506Z,84.8
2018-03-06T01:15:16.823Z,85.2
2018-03-06T01:16:17.131Z,85.3
2018-03-06T01:17:16.462Z,85.4
2018-03-06T01:18:16.778Z,85.5
2018-03-06T01:19:18.015Z,85.5
2018-03-06T01:20:16.329Z,85.5
2018-03-06T01:21:16.377Z,85.6
2018-03-06T01:22:16.700Z,85.6
2018-03-06T01:23:17.869Z,85.7
2018-03-06T01:24:17.161Z,85.7
2018-03-06T01:25:16.469Z,85.7
2018-03-06T01:26:16.836Z,85.7
2018-03-06T01:27:17.139Z,85.8
2018-03-06T01:28:16.452Z,85.8
2018-03-06T01:29:16.761Z,85.8
2018-03-06T01:30:17.915Z,86.0
2018-03-06T01:31:17.102Z,86.0
2018-03-06T01:32:16.399Z,86.0
2018-03-06T01:33:17.383Z,86.3
2018-03-06T01:34:16.694Z,86.4
2018-03-06T01:35:17.029Z,86.5
2018-03-06T01:36:17.143Z,86.5
2018-03-06T01:37:16.322Z,86.4
2018-03-06T01:38:16.632Z,86.4
2018-03-06T01:39:16.952Z,86.4
2018-03-06T01:40:17.520Z,86.5
2018-03-06T01:41:16.307Z,86.3
2018-03-06T01:42:16.628Z,86.4
2018-03-06T01:43:17.797Z,86.5
2018-03-06T01:44:16.955Z,86.4
2018-03-06T01:45:17.262Z,86.3
2018-03-06T01:46:17.255Z,86.5
2018-03-06T01:47:17.140Z,86.5
2018-03-06T01:48:16.445Z,87.0
2018-03-06T01:49:17.696Z,87.0
2018-03-06T01:50:17.010Z,87.0
2018-03-06T01:51:17.046Z,87.0
2018-03-06T01:52:16.350Z,87.0
2018-03-06T01:53:17.495Z,87.0
2018-03-06T01:54:16.756Z,87.0
2018-03-06T01:55:17.077Z,87.0
2018-03-06T01:56:17.221Z,87.0
2018-03-06T01:57:16.530Z,87.0
2018-03-06T01:58:16.837Z,87.0
2018-03-06T01:59:17.160Z,87.0
2018-03-06T02:00:17.137Z,87.1
2018-03-06T02:01:16.538Z,87.1
2018-03-06T02:02:16.866Z,87.1
2018-03-06T02:03:18.045Z,87.1
2018-03-06T02:04:16.343Z,87.1
2018-03-06T02:05:16.646Z,87.2
2018-03-06T02:06:16.950Z,87.6
2018-03-06T02:07:17.641Z,87.6
2018-03-06T02:08:16.939Z,87.6
2018-03-06T02:09:17.267Z,87.6
2018-03-06T02:10:17.459Z,87.7
2018-03-06T02:11:16.624Z,87.7
2018-03-06T02:12:16.929Z,87.7
2018-03-06T02:13:17.243Z,87.7
2018-03-06T02:14:17.551Z,87.7
2018-03-06T02:15:16.565Z,87.8
2018-03-06T02:16:16.893Z,87.7
2018-03-06T02:17:17.194Z,87.7
2018-03-06T02:18:17.144Z,87.8
2018-03-06T02:19:16.427Z,87.8
2018-03-06T02:20:16.750Z,87.8
2018-03-06T02:21:16.783Z,87.8
2018-03-06T02:22:17.130Z,87.8
2018-03-06T02:23:16.430Z,87.7
2018-03-06T02:24:16.748Z,87.7
2018-03-06T02:25:17.996Z,87.8
2018-03-06T02:26:16.997Z,87.7
2018-03-06T02:27:16.296Z,87.7
2018-03-06T02:28:16.607Z,87.7
2018-03-06T02:29:17.803Z,87.8
2018-03-06T02:30:16.991Z,87.8
2018-03-06T02:31:17.042Z,87.8
2018-03-06T02:32:17.395Z,87.8
2018-03-06T02:33:16.672Z,87.7
2018-03-06T02:34:16.991Z,88.2
2018-03-06T02:35:16.296Z,88.0
2018-03-06T02:36:17.641Z,88.1
2018-03-06T02:37:16.920Z,88.2
2018-03-06T02:38:17.267Z,88.0
2018-03-06T02:39:16.560Z,88.0
2018-03-06T02:40:17.516Z,88.0
2018-03-06T02:41:16.905Z,88.0
2018-03-06T02:42:17.196Z,88.0
2018-03-06T02:43:17.386Z,88.0
2018-03-06T02:44:16.505Z,88.0
2018-03-06T02:45:16.850Z,88.0
2018-03-06T02:46:17.142Z,88.0
2018-03-06T02:47:16.462Z,88.0
2018-03-06T02:48:16.750Z,88.1
2018-03-06T02:49:17.597Z,88.2
2018-03-06T02:50:17.682Z,88.2
2018-03-06T02:51:16.970Z,88.2
2018-03-06T02:52:17.263Z,88.2
2018-03-06T02:53:16.587Z,88.2
2018-03-06T02:54:17.712Z,88.2
2018-03-06T02:55:16.726Z,88.5
2018-03-06T02:56:17.031Z,88.5
2018-03-06T02:57:17.232Z,88.5
2018-03-06T02:58:16.525Z,88.5
2018-03-06T02:59:16.859Z,88.7
2018-03-06T03:00:17.193Z,88.7
2018-03-06T03:01:17.888Z,88.7
2018-03-06T03:02:16.623Z,88.7
2018-03-06T03:03:16.937Z,88.8
2018-03-06T03:04:17.550Z,88.8
2018-03-06T03:05:17.541Z,88.7
2018-03-06T03:06:16.521Z,88.7
2018-03-06T03:07:16.845Z,88.7
2018-03-06T03:08:17.978Z,88.8
2018-03-06T03:09:16.867Z,88.7
2018-03-06T03:10:17.179Z,88.8
2018-03-06T03:11:16.369Z,88.5
2018-03-06T03:12:17.567Z,88.3
2018-03-06T03:13:16.690Z,88.2
2018-03-06T03:14:17.172Z,88.3
2018-03-06T03:15:16.477Z,88.5
2018-03-06T03:16:17.535Z,88.5
2018-03-06T03:17:16.463Z,88.5
2018-03-06T03:18:16.760Z,88.5
2018-03-06T03:19:17.081Z,88.3
2018-03-06T03:20:17.554Z,88.3
2018-03-06T03:21:16.432Z,88.3
2018-03-06T03:22:16.743Z,88.3
2018-03-06T03:23:18.136Z,88.2
2018-03-06T03:24:16.414Z,88.2
2018-03-06T03:25:16.710Z,88.2
2018-03-06T03:26:17.928Z,88.2
2018-03-06T03:27:16.959Z,88.2
2018-03-06T03:28:17.268Z,88.2
2018-03-06T03:29:17.456Z,88.7
2018-03-06T03:30:17.306Z,88.8
2018-03-06T03:31:16.297Z,88.8
2018-03-06T03:32:16.613Z,88.9
2018-03-06T03:33:17.444Z,89.0
2018-03-06T03:34:16.748Z,89.1
2018-03-06T03:35:17.070Z,89.1
2018-03-06T03:36:17.191Z,89.2
2018-03-06T03:37:16.458Z,89.3
2018-03-06T03:38:16.770Z,89.3
2018-03-06T03:39:18.119Z,89.3
2018-03-06T03:40:16.449Z,89.5
2018-03-06T03:41:16.485Z,89.5
2018-03-06T03:42:17.506Z,89.5
2018-03-06T03:43:16.752Z,89.5
2018-03-06T03:44:17.029Z,89.5
2018-03-06T03:45:17.339Z,89.5
2018-03-06T03:46:16.629Z,89.5
2018-03-06T03:47:16.925Z,89.6
2018-03-06T03:48:18.043Z,89.5
2018-03-06T03:49:16.339Z,89.6
2018-03-06T03:50:16.726Z,89.5
2018-03-06T03:51:16.699Z,89.5
2018-03-06T03:52:17.699Z,89.5
2018-03-06T03:53:16.729Z,89.5
2018-03-06T03:54:17.027Z,89.5
2018-03-06T03:55:17.313Z,89.5
2018-03-06T03:56:17.233Z,89.5
2018-03-06T03:57:16.555Z,89.5
2018-03-06T03:58:16.850Z,89.5
2018-03-06T03:59:17.858Z,89.5
2018-03-06T04:00:16.975Z,89.5
2018-03-06T04:01:17.027Z,89.4
2018-03-06T04:02:16.756Z,89.5
2018-03-06T04:03:16.929Z,89.6
2018-03-06T04:04:17.346Z,89.8
2018-03-06T04:05:16.719Z,89.8
2018-03-06T04:06:17.064Z,89.8
2018-03-06T04:07:17.094Z,90.3
2018-03-06T04:08:16.412Z,90.3
2018-03-06T04:09:16.734Z,90.3
2018-03-06T04:10:17.048Z,90.3
2018-03-06T04:11:17.081Z,90.4
2018-03-06T04:12:16.423Z,90.5
2018-03-06T04:13:16.729Z,90.5
2018-03-06T04:14:17.994Z,90.4
2018-03-06T04:15:17.405Z,90.4
2018-03-06T04:16:16.693Z,90.4
2018-03-06T04:17:17.783Z,90.4
2018-03-06T04:18:16.895Z,90.4
2018-03-06T04:19:17.198Z,90.4
2018-03-06T04:20:16.505Z,90.4
2018-03-06T04:21:16.561Z,90.4
2018-03-06T04:22:16.874Z,90.5
2018-03-06T04:23:17.181Z,90.5
2018-03-06T04:24:17.141Z,90.5
2018-03-06T04:25:16.769Z,90.5
2018-03-06T04:26:17.119Z,90.5
2018-03-06T04:27:17.159Z,90.5
2018-03-06T04:28:16.798Z,90.7
2018-03-06T04:29:17.085Z,90.5
2018-03-06T04:30:16.391Z,90.5
2018-03-06T04:31:17.764Z,90.5
2018-03-06T04:32:16.869Z,90.5
2018-03-06T04:33:17.175Z,90.5
2018-03-06T04:34:17.513Z,90.7
2018-03-06T04:35:16.792Z,90.6
2018-03-06T04:36:17.131Z,90.6
2018-03-06T04:37:16.974Z,90.5
2018-03-06T04:38:16.491Z,90.5
2018-03-06T04:39:16.797Z,90.5
2018-03-06T04:40:17.116Z,90.5
2018-03-06T04:41:17.770Z,90.5
2018-03-06T04:42:16.715Z,90.5
2018-03-06T04:43:17.041Z,90.3
2018-03-06T04:44:16.367Z,90.3
2018-03-06T04:45:17.484Z,90.3
2018-03-06T04:46:16.845Z,90.4
2018-03-06T04:47:17.229Z,90.3
2018-03-06T04:48:17.196Z,90.4
2018-03-06T04:49:16.477Z,90.4
2018-03-06T04:50:16.791Z,90.4
2018-03-06T04:51:17.406Z,90.4
2018-03-06T04:52:17.030Z,90.3
2018-03-06T04:53:16.356Z,90.4
2018-03-06T04:54:16.675Z,90.4
2018-03-06T04:55:17.828Z,90.4
2018-03-06T04:56:16.982Z,90.5
2018-03-06T04:57:16.266Z,90.4
2018-03-06T04:58:16.589Z,90.2
2018-03-06T04:59:17.645Z,90.2
2018-03-06T05:00:16.734Z,90.2
2018-03-06T05:01:16.800Z,90.2
2018-03-06T05:02:17.997Z,90.2
2018-03-06T05:03:16.599Z,90.1
2018-03-06T05:04:16.896Z,90.1
2018-03-06T05:05:17.212Z,90.1
2018-03-06T05:06:17.024Z,90.2
2018-03-06T05:07:16.875Z,90.2
2018-03-06T05:08:17.189Z,90.2
2018-03-06T05:09:16.527Z,90.2
2018-03-06T05:10:17.786Z,90.1
2018-03-06T05:11:17.014Z,90.1
2018-03-06T05:12:16.352Z,90.2
2018-03-06T05:13:16.703Z,90.2
2018-03-06T05:14:17.026Z,90.2
2018-03-06T05:15:16.331Z,90.2
2018-03-06T05:16:17.447Z,90.2
2018-03-06T05:17:16.692Z,90.8
2018-03-06T05:18:17.043Z,90.7
2018-03-06T05:19:16.400Z,90.7
2018-03-06T05:20:16.754Z,90.8
2018-03-06T05:21:16.774Z,90.8
2018-03-06T05:22:17.085Z,90.7
2018-03-06T05:23:17.383Z,90.7
2018-03-06T05:24:16.697Z,90.7
2018-03-06T05:25:17.004Z,90.8
2018-03-06T05:26:16.319Z,90.8
2018-03-06T05:27:17.593Z,90.8
2018-03-06T05:28:16.897Z,90.8
2018-03-06T05:29:17.199Z,90.8
2018-03-06T05:30:16.502Z,90.8
2018-03-06T05:31:17.473Z,90.8
2018-03-06T05:32:16.773Z,90.9
2018-03-06T05:33:17.069Z,91.0
2018-03-06T05:34:16.370Z,91.0
2018-03-06T05:35:17.342Z,91.0
2018-03-06T05:36:16.297Z,90.9
2018-03-06T05:37:16.592Z,91.0
2018-03-06T05:38:16.948Z,91.0
2018-03-06T05:39:18.272Z,91.1
2018-03-06T05:40:16.468Z,91.1
2018-03-06T05:41:16.504Z,91.2
2018-03-06T05:42:16.815Z,91.0
2018-03-06T05:43:17.881Z,91.0
2018-03-06T05:44:16.798Z,91.0
2018-03-06T05:45:17.123Z,90.9
2018-03-06T05:46:16.436Z,90.8
2018-03-06T05:47:17.717Z,90.9
2018-03-06T05:48:16.966Z,90.8
2018-03-06T05:49:17.276Z,90.8
2018-03-06T05:50:17.521Z,90.8
2018-03-06T05:51:16.664Z,90.8
2018-03-06T05:52:16.954Z,90.8
2018-03-06T05:53:17.265Z,90.9
2018-03-06T05:54:17.229Z,90.8
2018-03-06T05:55:17.195Z,90.8
2018-03-06T05:56:16.513Z,90.8
2018-03-06T05:57:16.836Z,90.8
2018-03-06T05:58:17.564Z,90.8
2018-03-06T05:59:16.438Z,90.8
2018-03-06T06:00:17.018Z,90.7
2018-03-06T06:01:16.801Z,90.7
2018-03-06T06:02:17.951Z,90.5
2018-03-06T06:03:17.264Z,90.4
2018-03-06T06:04:16.558Z,90.6
2018-03-06T06:05:17.665Z,90.6
2018-03-06T06:06:16.700Z,90.6
2018-03-06T06:07:17.018Z,90.6
2018-03-06T06:08:16.380Z,90.7
2018-03-06T06:09:16.694Z,90.7
2018-03-06T06:10:18.078Z,90.7
2018-03-06T06:11:17.065Z,90.7
2018-03-06T06:12:16.385Z,90.7
2018-03-06T06:13:16.667Z,90.7
2018-03-06T06:14:17.290Z,90.7
2018-03-06T06:15:16.869Z,90.7
2018-03-06T06:16:17.142Z,90.7
2018-03-06T06:17:16.422Z,90.6
2018-03-06T06:18:16.702Z,90.5
2018-03-06T06:19:17.007Z,90.5
2018-03-06T06:20:16.284Z,90.5
2018-03-06T06:21:16.410Z,90.5
2018-03-06T06:22:16.702Z,90.5
2018-03-06T06:23:16.977Z,90.5
2018-03-06T06:24:17.256Z,90.5
2018-03-06T06:25:16.533Z,90.5
2018-03-06T06:26:16.800Z,90.5
2018-03-06T06:27:17.078Z,90.4
2018-03-06T06:28:16.758Z,90.3
2018-03-06T06:29:17.069Z,90.3
2018-03-06T06:30:16.361Z,90.3
2018-03-06T06:31:16.396Z,90.3
2018-03-06T06:32:16.668Z,90.2
2018-03-06T06:33:16.944Z,90.3
2018-03-06T06:34:17.216Z,90.2
2018-03-06T06:35:16.513Z,90.2
2018-03-06T06:36:16.794Z,90.2
2018-03-06T06:37:17.060Z,90.2
2018-03-06T06:38:16.334Z,90.2
2018-03-06T06:39:16.667Z,90.1
2018-03-06T06:40:16.949Z,90.0
2018-03-06T06:41:16.998Z,90.2
2018-03-06T06:42:16.266Z,90.1
2018-03-06T06:43:16.544Z,90.0
2018-03-06T06:44:16.812Z,90.0
2018-03-06T06:45:17.085Z,90.0
2018-03-06T06:46:16.352Z,90.1
2018-03-06T06:47:16.625Z,90.2
2018-03-06T06:48:16.907Z,90.0
2018-03-06T06:49:17.178Z,90.0
2018-03-06T06:50:16.455Z,89.9
2018-03-06T06:51:16.512Z,89.8
2018-03-06T06:52:16.783Z,89.8
2018-03-06T06:53:17.063Z,89.8
2018-03-06T06:54:16.329Z,89.7
2018-03-06T06:55:16.601Z,89.7
2018-03-06T06:56:16.866Z,89.8
2018-03-06T06:57:17.144Z,89.8
2018-03-06T06:58:16.413Z,89.5
2018-03-06T06:59:16.681Z,89.6
2018-03-06T07:00:16.954Z,89.6
2018-03-06T07:01:17.004Z,89.6
2018-03-06T07:02:16.278Z,89.4
2018-03-06T07:03:16.548Z,89.4
2018-03-06T07:04:16.816Z,89.5
2018-03-06T07:05:17.098Z,89.2
2018-03-06T07:06:16.366Z,89.3
2018-03-06T07:07:16.637Z,89.2
2018-03-06T07:08:16.914Z,89.2
2018-03-06T07:09:17.193Z,89.3
2018-03-06T07:10:16.517Z,89.0
2018-03-06T07:11:16.520Z,89.0
2018-03-06T07:12:16.785Z,88.5
2018-03-06T07:13:17.131Z,88.5
2018-03-06T07:14:16.409Z,88.5
2018-03-06T07:15:16.680Z,88.3
2018-03-06T07:16:16.945Z,88.3
2018-03-06T07:17:17.219Z,88.3
2018-03-06T07:18:16.482Z,88.2
2018-03-06T07:19:16.752Z,88.2
2018-03-06T07:20:17.027Z,88.0
2018-03-06T07:21:17.080Z,87.8
2018-03-06T07:22:16.358Z,87.9
2018-03-06T07:23:16.681Z,88.0
2018-03-06T07:24:16.956Z,88.2
2018-03-06T07:25:17.227Z,88.3
2018-03-06T07:26:16.497Z,88.2
2018-03-06T07:27:16.763Z,88.0
2018-03-06T07:28:17.028Z,88.0
2018-03-06T07:29:16.289Z,87.8
2018-03-06T07:30:16.565Z,87.8
2018-03-06T07:31:16.599Z,87.1
2018-03-06T07:32:16.880Z,86.9
2018-03-06T07:33:17.199Z,87.0
2018-03-06T07:34:16.474Z,87.0
2018-03-06T07:35:16.755Z,86.8
2018-03-06T07:36:17.097Z,86.8
2018-03-06T07:37:16.373Z,86.7
2018-03-06T07:38:16.653Z,86.8
2018-03-06T07:39:17.027Z,86.9
2018-03-06T07:40:16.310Z,86.8
2018-03-06T07:41:16.353Z,86.8
2018-03-06T07:42:16.625Z,86.2
2018-03-06T07:43:16.891Z,86.3
2018-03-06T07:44:17.160Z,86.3
2018-03-06T07:45:16.494Z,86.4
2018-03-06T07:46:16.777Z,86.5
2018-03-06T07:47:17.059Z,86.4
2018-03-06T07:48:16.333Z,86.2
2018-03-06T07:49:16.600Z,85.6
2018-03-06T07:50:16.880Z,85.6
2018-03-06T07:51:16.930Z,85.5
2018-03-06T07:52:17.210Z,85.2
2018-03-06T07:53:16.478Z,85.2
2018-03-06T07:54:16.761Z,85.2
2018-03-06T07:55:17.031Z,84.5
2018-03-06T07:56:16.302Z,84.6
2018-03-06T07:57:16.606Z,84.5
2018-03-06T07:58:16.878Z,84.5
2018-03-06T07:59:17.143Z,84.0
2018-03-06T08:00:16.428Z,84.0
2018-03-06T08:01:16.464Z,84.2
2018-03-06T08:02:16.736Z,84.0
2018-03-06T08:03:17.003Z,83.5
2018-03-06T08:04:16.270Z,83.5
2018-03-06T08:05:16.547Z,83.4
2018-03-06T08:06:16.811Z,83.2
2018-03-06T08:07:17.079Z,83.0
2018-03-06T08:08:16.349Z,83.0
2018-03-06T08:09:16.625Z,83.2
2018-03-06T08:10:16.906Z,82.5
2018-03-06T08:11:16.949Z,82.5
2018-03-06T08:12:17.215Z,82.3
2018-03-06T08:13:16.481Z,82.3
2018-03-06T08:14:16.757Z,82.0
2018-03-06T08:15:17.029Z,82.1
2018-03-06T08:16:16.300Z,81.5
2018-03-06T08:17:16.582Z,81.3
2018-03-06T08:18:16.857Z,81.4
2018-03-06T08:19:17.129Z,81.2
2018-03-06T08:20:16.394Z,80.8
2018-03-06T08:21:16.445Z,80.8
2018-03-06T08:22:16.724Z,80.9
2018-03-06T08:23:17.008Z,80.8
2018-03-06T08:24:16.279Z,80.5
2018-03-06T08:25:16.566Z,80.3
2018-03-06T08:26:16.832Z,80.2
2018-03-06T08:27:17.088Z,79.7
2018-03-06T08:28:16.362Z,79.6
2018-03-06T08:29:16.631Z,79.3
2018-03-06T08:30:16.978Z,79.5
2018-03-06T08:31:16.950Z,79.7
2018-03-06T08:32:17.220Z,79.2
2018-03-06T08:33:16.487Z,79.2
2018-03-06T08:34:16.763Z,79.2
2018-03-06T08:35:17.035Z,79.2
2018-03-06T08:36:16.308Z,79.2
2018-03-06T08:37:16.580Z,79.2
2018-03-06T08:38:16.851Z,78.4
2018-03-06T08:39:17.133Z,78.2
2018-03-06T08:40:16.405Z,78.1
2018-03-06T08:41:16.454Z,78.2
2018-03-06T08:42:16.714Z,78.2
2018-03-06T08:43:16.987Z,77.6
2018-03-06T08:44:17.252Z,77.7
2018-03-06T08:45:16.530Z,77.5
2018-03-06T08:46:16.793Z,77.3
2018-03-06T08:47:17.070Z,77.0
2018-03-06T08:48:16.339Z,76.6
2018-03-06T08:49:16.601Z,77.0
2018-03-06T08:50:16.881Z,77.0
2018-03-06T08:51:16.923Z,76.8
2018-03-06T08:52:17.198Z,76.8
2018-03-06T08:53:16.467Z,75.9
2018-03-06T08:54:16.734Z,76.1
2018-03-06T08:55:17.005Z,75.8
2018-03-06T08:56:16.273Z,76.1
2018-03-06T08:57:16.536Z,75.3
2018-03-06T08:58:16.803Z,75.0
2018-03-06T08:59:17.153Z,74.8
2018-03-06T09:00:16.759Z,74.7
2018-03-06T09:01:16.498Z,74.5
2018-03-06T09:02:16.764Z,74.4
2018-03-06T09:03:17.028Z,74.8
2018-03-06T09:04:16.294Z,74.1
2018-03-06T09:05:16.564Z,73.7
2018-03-06T09:06:16.828Z,72.8
2018-03-06T09:07:17.102Z,72.7
2018-03-06T09:08:16.370Z,72.5
2018-03-06T09:09:16.644Z,72.0
2018-03-06T09:10:16.915Z,71.4
2018-03-06T09:11:17.001Z,71.5
2018-03-06T09:12:16.274Z,71.0
2018-03-06T09:13:16.556Z,70.5
2018-03-06T09:14:16.826Z,70.6
2018-03-06T09:15:17.363Z,69.9
2018-03-06T09:16:16.629Z,69.6
2018-03-06T09:17:16.937Z,69.8
2018-03-06T09:18:17.204Z,69.8
2018-03-06T09:19:16.472Z,68.8
2018-03-06T09:20:16.747Z,68.7
2018-03-06T09:21:16.793Z,68.2
2018-03-06T09:22:17.059Z,68.0
2018-03-06T09:23:16.330Z,67.9
2018-03-06T09:24:16.594Z,67.6
2018-03-06T09:25:16.866Z,67.1
2018-03-06T09:26:17.139Z,67.0
2018-03-06T09:27:16.404Z,66.5
2018-03-06T09:28:16.678Z,66.8
2018-03-06T09:29:16.943Z,66.8
2018-03-06T09:30:17.230Z,67.0
2018-03-06T09:31:16.265Z,66.3
2018-03-06T09:32:16.539Z,66.7
2018-03-06T09:33:16.805Z,65.5
2018-03-06T09:34:17.075Z,64.9
2018-03-06T09:35:16.340Z,64.8
2018-03-06T09:36:16.615Z,64.7
2018-03-06T09:37:16.889Z,64.6
2018-03-06T09:38:17.160Z,64.8
2018-03-06T09:39:16.421Z,65.4
2018-03-06T09:40:16.703Z,65.4
2018-03-06T09:41:16.757Z,64.7
2018-03-06T09:42:17.029Z,64.5
2018-03-06T09:43:16.296Z,64.8
2018-03-06T09:44:16.570Z,64.6
2018-03-06T09:45:16.844Z,64.6
2018-03-06T09:46:17.110Z,64.3
2018-03-06T09:47:16.372Z,65.5
2018-03-06T09:48:16.650Z,65.2
2018-03-06T09:49:16.913Z,65.2
2018-03-06T09:50:17.203Z,64.8
2018-03-06T09:51:17.230Z,65.0
2018-03-06T09:52:16.500Z,64.8
2018-03-06T09:53:16.773Z,64.2
2018-03-06T09:54:17.040Z,63.8
2018-03-06T09:55:16.317Z,63.5
2018-03-06T09:56:16.583Z,63.3
2018-03-06T09:57:16.852Z,63.8
2018-03-06T09:58:17.125Z,63.4
2018-03-06T09:59:16.388Z,63.5
2018-03-06T10:00:16.666Z,63.3
2018-03-06T10:01:16.709Z,62.8
2018-03-06T10:02:16.977Z,63.1
2018-03-06T10:03:17.250Z,62.9
2018-03-06T10:04:16.521Z,63.5
2018-03-06T10:05:16.795Z,63.8
2018-03-06T10:06:17.066Z,62.9
2018-03-06T10:07:16.355Z,63.0
2018-03-06T10:08:16.632Z,63.0
2018-03-06T10:09:16.908Z,62.5
2018-03-06T10:10:17.199Z,62.0
2018-03-06T10:11:17.238Z,62.0
2018-03-06T10:12:16.504Z,62.4
2018-03-06T10:13:16.769Z,62.9
2018-03-06T10:14:17.039Z,63.3
2018-03-06T10:15:16.311Z,63.0
2018-03-06T10:16:16.581Z,62.7
2018-03-06T10:17:16.851Z,62.6
2018-03-06T10:18:17.116Z,62.6
2018-03-06T10:19:16.390Z,62.5
2018-03-06T10:20:16.672Z,63.0
2018-03-06T10:21:16.718Z,62.4
2018-03-06T10:22:16.988Z,62.0
2018-03-06T10:23:16.253Z,62.0
2018-03-06T10:24:16.531Z,62.1
2018-03-06T10:25:16.803Z,61.8
2018-03-06T10:26:17.079Z,62.5
2018-03-06T10:27:16.341Z,62.2
2018-03-06T10:28:16.606Z,61.9
2018-03-06T10:29:16.881Z,61.8
2018-03-06T10:30:17.172Z,61.8
2018-03-06T10:31:17.209Z,62.2
2018-03-06T10:32:16.480Z,61.5
2018-03-06T10:33:16.752Z,61.5
2018-03-06T10:34:17.014Z,61.0
2018-03-06T10:35:16.286Z,61.2
2018-03-06T10:36:16.552Z,61.0
2018-03-06T10:37:16.809Z,60.8
2018-03-06T10:38:17.077Z,61.0
2018-03-06T10:39:16.355Z,61.4
2018-03-06T10:40:16.631Z,60.9
2018-03-06T10:41:16.675Z,60.6
2018-03-06T10:42:16.943Z,60.4
2018-03-06T10:43:17.213Z,60.2
2018-03-06T10:44:16.481Z,60.3
2018-03-06T10:45:16.760Z,60.3
2018-03-06T10:46:17.037Z,60.0
2018-03-06T10:47:16.321Z,60.2
2018-03-06T10:48:16.591Z,59.5
2018-03-06T10:49:16.866Z,59.4
2018-03-06T10:50:17.145Z,59.8
2018-03-06T10:51:17.179Z,59.7
2018-03-06T10:52:16.454Z,59.9
2018-03-06T10:53:16.795Z,59.1
2018-03-06T10:54:17.069Z,59.2
2018-03-06T10:55:16.459Z,59.6
2018-03-06T10:56:16.787Z,59.9
2018-03-06T10:57:17.053Z,60.0
2018-03-06T10:58:16.324Z,59.7
2018-03-06T10:59:16.588Z,59.6
2018-03-06T11:00:16.871Z,59.7
2018-03-06T11:01:16.964Z,59.2
2018-03-06T11:02:17.239Z,59.2
2018-03-06T11:03:16.525Z,59.2
2018-03-06T11:04:16.795Z,59.2
2018-03-06T11:05:17.070Z,59.1
2018-03-06T11:06:16.340Z,59.0
2018-03-06T11:07:16.604Z,58.5
2018-03-06T11:08:16.947Z,58.9
2018-03-06T11:09:17.223Z,58.5
2018-03-06T11:10:16.508Z,58.8
2018-03-06T11:11:16.587Z,59.2
2018-03-06T11:12:16.859Z,59.2
2018-03-06T11:13:17.145Z,58.5
2018-03-06T11:14:16.459Z,58.7
2018-03-06T11:15:16.783Z,59.1
2018-03-06T11:16:17.153Z,60.0
2018-03-06T11:17:16.434Z,60.0
2018-03-06T11:18:16.706Z,59.9
2018-03-06T11:19:16.978Z,60.8
2018-03-06T11:20:17.252Z,60.4
2018-03-06T11:21:16.313Z,60.0
2018-03-06T11:22:16.578Z,59.6
2018-03-06T11:23:16.880Z,59.6
2018-03-06T11:24:17.149Z,59.2
2018-03-06T11:25:16.424Z,59.1
2018-03-06T11:26:16.706Z,59.7
2018-03-06T11:27:16.969Z,59.6
2018-03-06T11:28:17.228Z,60.1
2018-03-06T11:29:16.509Z,60.0
2018-03-06T11:30:16.781Z,60.4
2018-03-06T11:31:16.845Z,60.1
2018-03-06T11:32:17.115Z,60.4
2018-03-06T11:33:16.392Z,60.2
2018-03-06T11:34:16.668Z,60.2
2018-03-06T11:35:16.943Z,60.3
2018-03-06T11:36:17.225Z,60.5
2018-03-06T11:37:16.507Z,60.4
2018-03-06T11:38:16.784Z,60.2
2018-03-06T11:39:17.059Z,60.5
2018-03-06T11:40:16.332Z,60.5
2018-03-06T11:41:16.379Z,60.1
2018-03-06T11:42:16.653Z,60.2
2018-03-06T11:43:16.920Z,60.3
2018-03-06T11:44:17.189Z,60.4
2018-03-06T11:45:16.451Z,60.7
2018-03-06T11:46:16.720Z,60.4
2018-03-06T11:47:17.009Z,60.2
2018-03-06T11:48:16.272Z,59.9
2018-03-06T11:49:16.533Z,59.5
2018-03-06T11:50:16.805Z,59.6
2018-03-06T11:51:16.879Z,59.8
2018-03-06T11:52:17.157Z,59.8
2018-03-06T11:53:16.433Z,59.7
2018-03-06T11:54:16.708Z,60.2
2018-03-06T11:55:16.989Z,60.3
2018-03-06T11:56:16.262Z,60.4
2018-03-06T11:57:16.543Z,60.4
2018-03-06T11:58:17.096Z,60.3
2018-03-06T11:59:16.364Z,60.4
2018-03-06T12:00:16.643Z,60.1
2018-03-06T12:01:16.700Z,60.4
2018-03-06T12:02:16.968Z,60.1
2018-03-06T12:03:17.261Z,60.6
2018-03-06T12:04:16.526Z,60.7
2018-03-06T12:05:16.853Z,60.8
2018-03-06T12:06:17.127Z,60.7
2018-03-06T12:07:16.397Z,60.6
2018-03-06T12:08:16.676Z,60.9
2018-03-06T12:09:16.953Z,61.1
2018-03-06T12:10:17.228Z,61.0
2018-03-06T12:11:16.276Z,60.6
2018-03-06T12:12:16.573Z,60.5
2018-03-06T12:13:16.842Z,60.5
2018-03-06T12:14:17.381Z,61.0
2018-03-06T12:15:16.663Z,61.5
2018-03-06T12:16:16.961Z,60.9
2018-03-06T12:17:17.250Z,60.6
2018-03-06T12:18:16.514Z,60.5
2018-03-06T12:19:16.788Z,60.1
2018-03-06T12:20:17.067Z,59.9
2018-03-06T12:21:17.093Z,60.5
2018-03-06T12:22:16.360Z,60.6
2018-03-06T12:23:16.639Z,61.0
2018-03-06T12:24:16.914Z,61.0
2018-03-06T12:25:17.176Z,61.1
2018-03-06T12:26:16.448Z,61.2
2018-03-06T12:27:16.715Z,61.2
2018-03-06T12:28:16.982Z,61.4
2018-03-06T12:29:17.261Z,61.9
2018-03-06T12:30:16.534Z,61.6
2018-03-06T12:31:16.564Z,61.6
2018-03-06T12:32:16.829Z,61.8
2018-03-06T12:33:17.100Z,62.1
2018-03-06T12:34:16.361Z,61.9
2018-03-06T12:35:16.635Z,62.0
2018-03-06T12:36:16.907Z,62.0
2018-03-06T12:37:17.184Z,62.0
2018-03-06T12:38:16.454Z,62.0
2018-03-06T12:39:16.733Z,62.1
2018-03-06T12:40:17.010Z,62.1
2018-03-06T12:41:17.046Z,62.5
2018-03-06T12:42:16.314Z,62.8
2018-03-06T12:43:16.590Z,62.7
2018-03-06T12:44:16.872Z,62.6
2018-03-06T12:45:17.150Z,62.8
2018-03-06T12:46:16.422Z,62.8
2018-03-06T12:47:16.704Z,62.9
2018-03-06T12:48:16.975Z,63.1
2018-03-06T12:49:17.278Z,63.1
2018-03-06T12:50:16.554Z,63.2
2018-03-06T12:51:16.601Z,62.8
2018-03-06T12:52:16.870Z,62.6
2018-03-06T12:53:17.142Z,64.0
2018-03-06T12:54:16.416Z,64.1
2018-03-06T12:55:16.714Z,64.0
2018-03-06T12:56:16.990Z,64.1
2018-03-06T12:57:17.260Z,64.7
2018-03-06T12:58:16.533Z,64.9
2018-03-06T12:59:16.804Z,65.0
2018-03-06T13:00:17.090Z,65.8
2018-03-06T13:01:17.144Z,66.0
2018-03-06T13:02:16.411Z,66.5
2018-03-06T13:03:16.683Z,66.7
2018-03-06T13:04:17.005Z,67.0
2018-03-06T13:05:16.278Z,67.8
2018-03-06T13:06:16.567Z,68.0
2018-03-06T13:07:16.844Z,68.7
2018-03-06T13:08:17.124Z,69.1
2018-03-06T13:09:16.399Z,69.2
2018-03-06T13:10:16.688Z,69.3
2018-03-06T13:11:16.754Z,69.8
2018-03-06T13:12:17.022Z,70.7
2018-03-06T13:13:16.293Z,71.0
2018-03-06T13:14:16.573Z,71.4
2018-03-06T13:15:16.840Z,71.2
2018-03-06T13:16:17.119Z,71.8
2018-03-06T13:17:16.390Z,71.7
2018-03-06T13:18:16.663Z,72.5